createdAt,value
2019-01-18T00:01:06.431Z,4.57
2019-01-18T00:03:36.671Z,2.83
2019-01-18T00:06:06.759Z,2.97
2019-01-18T00:08:36.475Z,5.33
2019-01-18T00:11:06.601Z,4.80
2019-01-18T00:13:36.504Z,2.90
2019-01-18T00:16:06.296Z,2.17
2019-01-18T00:18:36.251Z,3.07
2019-01-18T00:21:06.149Z,2.57
2019-01-18T00:23:35.914Z,3.73
2019-01-18T00:26:05.711Z,4.47
2019-01-18T00:28:36.468Z,5.00
2019-01-18T00:31:06.495Z,4.67
2019-01-18T00:33:36.327Z,4.90
2019-01-18T00:36:06.188Z,4.00
2019-01-18T00:38:35.968Z,6.37
2019-01-18T00:41:05.827Z,3.97
2019-01-18T00:43:35.624Z,3.70
2019-01-18T00:46:05.764Z,5.73
2019-01-18T00:48:35.524Z,2.30
2019-01-18T00:51:05.306Z,4.30
2019-01-18T00:53:35.134Z,2.87
2019-01-18T00:56:05.288Z,3.80
2019-01-18T00:58:35.037Z,3.50
2019-01-18T01:01:05.152Z,3.10
2019-01-18T01:03:34.920Z,6.17
2019-01-18T01:06:04.711Z,2.63
2019-01-18T01:08:34.507Z,3.13
2019-01-18T01:11:04.260Z,3.27
2019-01-18T01:13:34.099Z,4.67
2019-01-18T01:16:03.846Z,5.50
2019-01-18T01:18:33.659Z,3.90
2019-01-18T01:21:03.543Z,4.77
2019-01-18T01:23:33.464Z,3.70
2019-01-18T01:26:03.365Z,2.27
2019-01-18T01:28:33.110Z,4.60
2019-01-18T01:31:02.869Z,6.87
2019-01-18T01:33:32.682Z,4.63
2019-01-18T01:36:02.353Z,4.87
2019-01-18T01:38:32.140Z,6.13
2019-01-18T01:41:01.902Z,5.80
2019-01-18T01:43:31.603Z,4.17
2019-01-18T01:46:01.383Z,8.43
2019-01-18T01:48:31.191Z,5.83
2019-01-18T01:51:01.002Z,7.13
2019-01-18T01:53:30.767Z,5.13
2019-01-18T01:56:00.602Z,6.17
2019-01-18T01:58:30.185Z,6.83
2019-01-18T02:01:00.033Z,6.67
2019-01-18T02:03:29.835Z,4.67
2019-01-18T02:05:59.655Z,5.13
2019-01-18T02:08:29.424Z,7.90
2019-01-18T02:10:59.104Z,7.13
2019-01-18T02:13:28.817Z,6.73
2019-01-18T02:15:58.523Z,10.33
2019-01-18T02:18:28.259Z,7.53
2019-01-18T02:20:57.997Z,9.13
2019-01-18T02:23:27.746Z,7.63
2019-01-18T02:25:57.436Z,9.27
2019-01-18T02:28:27.144Z,6.77
2019-01-18T02:30:56.830Z,9.17
2019-01-18T02:33:26.595Z,8.97
2019-01-18T02:35:56.264Z,6.67
2019-01-18T02:38:26.010Z,6.80
2019-01-18T02:40:55.769Z,6.40
2019-01-18T02:43:25.482Z,5.17
2019-01-18T02:45:55.283Z,7.27
2019-01-18T02:48:24.984Z,4.67
2019-01-18T02:50:54.723Z,6.87
2019-01-18T02:53:24.508Z,5.37
2019-01-18T02:55:54.247Z,4.27
2019-01-18T02:58:23.962Z,4.83
2019-01-18T03:00:53.659Z,5.10
2019-01-18T03:03:23.427Z,5.93
2019-01-18T03:05:53.184Z,6.53
2019-01-18T03:08:22.951Z,9.10
2019-01-18T03:10:52.773Z,7.23
2019-01-18T03:13:22.499Z,6.33
2019-01-18T03:15:52.279Z,9.60
2019-01-18T03:18:21.950Z,12.43
2019-01-18T03:20:51.708Z,9.00
2019-01-18T03:23:21.477Z,6.43
2019-01-18T03:25:51.317Z,7.67
2019-01-18T03:28:21.060Z,7.40
2019-01-18T03:30:50.724Z,7.47
2019-01-18T03:33:20.420Z,4.90
2019-01-18T03:35:50.073Z,6.43
2019-01-18T03:38:19.736Z,7.30
2019-01-18T03:40:49.395Z,6.10
2019-01-18T03:43:19.127Z,8.37
2019-01-18T03:45:48.827Z,9.13
2019-01-18T03:48:18.651Z,6.93
2019-01-18T03:50:48.335Z,9.57
2019-01-18T03:53:18.129Z,9.97
2019-01-18T03:55:47.927Z,9.63
2019-01-18T03:58:17.699Z,8.43
2019-01-18T04:00:47.452Z,6.23
2019-01-18T04:03:17.154Z,7.93
2019-01-18T04:05:47.035Z,9.40
2019-01-18T04:08:16.793Z,7.83
2019-01-18T04:10:46.495Z,9.10
2019-01-18T04:13:16.255Z,6.13
2019-01-18T04:15:46.046Z,9.23
2019-01-18T04:18:15.793Z,10.70
2019-01-18T04:23:14.653Z,9.10
2019-01-18T04:25:44.602Z,11.20
2019-01-18T04:28:14.390Z,11.30
2019-01-18T04:30:44.087Z,7.43
2019-01-18T04:33:13.859Z,7.63
2019-01-18T04:35:43.628Z,14.77
2019-01-18T04:38:13.361Z,10.83
2019-01-18T04:40:43.148Z,11.23
2019-01-18T04:43:12.845Z,11.77
2019-01-18T04:45:42.478Z,11.27
2019-01-18T04:48:12.177Z,9.43
2019-01-18T04:50:41.943Z,12.13
2019-01-18T04:53:11.783Z,11.17
2019-01-18T04:55:41.561Z,9.37
2019-01-18T04:58:11.444Z,16.10
2019-01-18T05:00:41.715Z,12.57
2019-01-18T05:03:11.485Z,9.53
2019-01-18T05:05:41.158Z,13.53
2019-01-18T05:08:10.995Z,8.97
2019-01-18T05:10:40.748Z,14.33
2019-01-18T05:13:10.521Z,10.00
2019-01-18T05:15:41.026Z,13.27
2019-01-18T05:18:10.867Z,10.27
2019-01-18T05:20:40.631Z,9.10
2019-01-18T05:23:10.482Z,9.23
2019-01-18T05:25:40.250Z,10.00
2019-01-18T05:28:09.926Z,15.93
2019-01-18T05:30:39.603Z,13.07
2019-01-18T05:33:09.367Z,11.30
2019-01-18T05:35:39.183Z,10.77
2019-01-18T05:38:08.972Z,14.03
2019-01-18T05:40:38.717Z,19.87
2019-01-18T05:43:08.452Z,10.27
2019-01-18T05:45:38.199Z,9.60
2019-01-18T05:48:07.950Z,8.27
2019-01-18T05:50:37.630Z,12.97
2019-01-18T05:53:07.625Z,12.87
2019-01-18T05:55:37.298Z,12.07
2019-01-18T05:58:07.070Z,14.83
2019-01-18T06:00:38.376Z,16.00
2019-01-18T06:03:08.253Z,13.77
2019-01-18T06:05:40.010Z,16.93
2019-01-18T06:08:09.810Z,18.60
2019-01-18T06:10:39.537Z,20.00
2019-01-18T06:13:09.328Z,18.60
2019-01-18T06:15:40.474Z,24.23
2019-01-18T06:18:10.544Z,23.60
2019-01-18T06:20:40.273Z,23.80
2019-01-18T06:23:10.060Z,24.03
2019-01-18T06:25:39.777Z,21.57
2019-01-18T06:28:09.481Z,20.17
2019-01-18T06:30:39.230Z,20.27
2019-01-18T06:33:09.011Z,19.00
2019-01-18T06:35:38.807Z,18.70
2019-01-18T06:38:08.536Z,21.77
2019-01-18T06:40:38.331Z,19.70
2019-01-18T06:43:08.275Z,18.30
2019-01-18T06:45:37.969Z,18.70
2019-01-18T06:48:07.697Z,20.13
2019-01-18T06:50:37.431Z,16.00
2019-01-18T06:53:07.290Z,14.33
2019-01-18T06:55:37.070Z,19.93
2019-01-18T06:58:06.850Z,17.63
2019-01-18T07:00:36.585Z,13.73
2019-01-18T07:03:06.439Z,14.63
2019-01-18T07:05:36.113Z,12.57
2019-01-18T07:08:05.958Z,18.30
2019-01-18T07:10:35.703Z,16.87
2019-01-18T07:13:05.462Z,16.17
2019-01-18T07:15:35.181Z,11.23
2019-01-18T07:18:05.228Z,11.80
2019-01-18T07:20:35.037Z,12.00
2019-01-18T07:23:04.754Z,10.10
2019-01-18T07:25:34.506Z,10.47
2019-01-18T07:28:04.321Z,12.80
2019-01-18T07:30:36.245Z,13.50
2019-01-18T07:33:07.131Z,9.80
2019-01-18T07:35:37.038Z,10.93
2019-01-18T07:38:06.657Z,12.73
2019-01-18T07:40:36.386Z,15.83
2019-01-18T07:43:06.260Z,15.53
2019-01-18T07:45:36.050Z,13.73
2019-01-18T07:48:07.179Z,14.83
2019-01-18T07:50:36.978Z,11.70
2019-01-18T07:53:06.835Z,11.37
2019-01-18T07:55:36.586Z,14.17
2019-01-18T07:58:06.335Z,12.03
2019-01-18T08:00:36.072Z,19.23
2019-01-18T08:03:05.754Z,11.63
2019-01-18T08:05:35.443Z,14.93
2019-01-18T08:08:05.463Z,13.27
2019-01-18T08:10:35.261Z,18.00
2019-01-18T08:13:05.303Z,16.37
2019-01-18T08:15:35.057Z,19.80
2019-01-18T08:18:04.764Z,14.77
2019-01-18T08:20:34.679Z,15.97
2019-01-18T08:23:05.167Z,16.13
2019-01-18T08:25:34.888Z,14.93
2019-01-18T08:28:07.589Z,15.57
2019-01-18T08:30:37.358Z,14.80
2019-01-18T08:33:07.046Z,14.43
2019-01-18T08:35:36.776Z,15.07
2019-01-18T08:38:06.484Z,18.47
2019-01-18T08:40:37.569Z,15.03
2019-01-18T08:43:08.357Z,15.10
2019-01-18T08:45:40.844Z,14.93
2019-01-18T08:48:10.799Z,19.43
2019-01-18T08:50:41.553Z,18.87
2019-01-18T08:53:11.339Z,16.40
2019-01-18T08:55:41.090Z,19.93
2019-01-18T08:58:10.788Z,19.43
2019-01-18T09:00:40.461Z,16.33
2019-01-18T09:03:10.255Z,16.30
2019-01-18T09:05:39.956Z,13.97
2019-01-18T09:08:09.657Z,13.17
2019-01-18T09:10:39.332Z,15.23
2019-01-18T09:13:09.126Z,13.97
2019-01-18T09:15:39.032Z,17.90
2019-01-18T09:18:08.803Z,14.97
2019-01-18T09:20:38.578Z,14.70
2019-01-18T09:23:08.299Z,13.43
2019-01-18T09:25:38.012Z,17.53
2019-01-18T09:28:07.784Z,15.50
2019-01-18T09:30:37.535Z,15.77
2019-01-18T09:33:07.230Z,16.60
2019-01-18T09:35:36.933Z,16.73
2019-01-18T09:38:07.901Z,13.50
2019-01-18T09:40:37.708Z,17.10
2019-01-18T09:43:07.484Z,14.00
2019-01-18T09:45:37.218Z,17.87
2019-01-18T09:48:07.380Z,18.90
2019-01-18T09:50:37.117Z,14.17
2019-01-18T09:53:08.235Z,16.27
2019-01-18T09:55:37.938Z,17.67
2019-01-18T09:58:07.683Z,17.73
2019-01-18T10:00:38.379Z,15.47
2019-01-18T10:03:08.152Z,13.70
2019-01-18T10:05:37.958Z,14.63
2019-01-18T10:08:07.669Z,12.20
2019-01-18T10:10:37.410Z,16.33
2019-01-18T10:13:07.154Z,14.47
2019-01-18T10:15:39.432Z,16.87
2019-01-18T10:18:09.211Z,14.37
2019-01-18T10:20:38.985Z,17.23
2019-01-18T10:23:08.773Z,13.30
2019-01-18T10:25:38.483Z,14.90
2019-01-18T10:28:08.177Z,13.97
2019-01-18T10:30:37.950Z,16.43
2019-01-18T10:33:07.817Z,15.90
2019-01-18T10:35:37.600Z,16.87
2019-01-18T10:38:07.565Z,11.77
2019-01-18T10:40:38.085Z,13.17
2019-01-18T10:43:07.827Z,12.27
2019-01-18T10:45:37.625Z,11.93
2019-01-18T10:48:07.315Z,10.53
2019-01-18T10:50:37.077Z,10.23
2019-01-18T10:53:06.831Z,10.27
2019-01-18T10:55:36.593Z,11.00
2019-01-18T10:58:06.318Z,9.80
2019-01-18T11:00:36.403Z,11.63
2019-01-18T11:03:07.022Z,11.80
2019-01-18T11:05:36.761Z,11.27
2019-01-18T11:08:06.466Z,11.10
2019-01-18T11:10:36.255Z,10.03
2019-01-18T11:13:05.984Z,8.27
2019-01-18T11:15:36.221Z,13.07
2019-01-18T11:18:06.489Z,10.27
2019-01-18T11:20:39.557Z,12.70
2019-01-18T11:23:09.383Z,9.63
2019-01-18T11:25:39.202Z,9.53
2019-01-18T11:28:08.959Z,10.23
2019-01-18T11:30:38.772Z,9.47
2019-01-18T11:33:08.697Z,6.67
2019-01-18T11:35:38.514Z,9.50
2019-01-18T11:38:08.268Z,8.07
2019-01-18T11:40:38.136Z,8.80
2019-01-18T11:43:07.776Z,8.90
2019-01-18T11:45:37.554Z,7.03
2019-01-18T11:48:07.241Z,7.63
2019-01-18T11:50:37.019Z,9.77
2019-01-18T11:53:06.824Z,9.77
2019-01-18T11:55:36.561Z,8.10
2019-01-18T11:58:06.244Z,9.43
2019-01-18T12:00:37.913Z,7.67
2019-01-18T12:03:07.391Z,7.13
2019-01-18T12:05:37.203Z,5.97
2019-01-18T12:08:06.991Z,7.47
2019-01-18T12:10:36.829Z,7.07
2019-01-18T12:13:06.591Z,6.37
2019-01-18T12:15:36.328Z,6.20
2019-01-18T12:18:06.364Z,5.40
2019-01-18T12:20:36.131Z,6.90
2019-01-18T12:23:07.034Z,8.80
2019-01-18T12:25:36.841Z,7.07
2019-01-18T12:28:06.617Z,6.53
2019-01-18T12:30:36.471Z,4.07
2019-01-18T12:33:06.118Z,5.00
2019-01-18T12:35:35.946Z,5.10
2019-01-18T12:38:05.947Z,7.60
2019-01-18T12:40:36.018Z,6.27
2019-01-18T12:43:05.827Z,5.40
2019-01-18T12:45:35.559Z,9.57
2019-01-18T12:48:05.744Z,7.10
2019-01-18T12:50:35.935Z,10.73
2019-01-18T12:53:06.977Z,6.47
2019-01-18T12:55:36.902Z,10.67
2019-01-18T12:58:06.933Z,6.87
2019-01-18T13:00:36.819Z,8.40
2019-01-18T13:03:07.225Z,5.37
2019-01-18T13:05:40.009Z,5.23
2019-01-18T13:08:10.306Z,5.93
2019-01-18T13:10:40.218Z,6.10
2019-01-18T13:13:10.321Z,4.40
2019-01-18T13:15:55.363Z,6.53
2019-01-18T13:18:25.571Z,6.27
2019-01-18T13:20:55.384Z,8.80
2019-01-18T13:23:25.129Z,6.30
2019-01-18T13:25:55.412Z,5.30
2019-01-18T13:28:25.519Z,6.40
2019-01-18T13:30:55.276Z,5.33
2019-01-18T13:33:25.494Z,8.27
2019-01-18T13:35:55.324Z,6.37
2019-01-18T13:38:25.270Z,5.43
2019-01-18T13:40:55.162Z,8.23
2019-01-18T13:43:25.207Z,7.97
2019-01-18T13:45:55.231Z,7.90
2019-01-18T13:48:25.252Z,5.50
2019-01-18T13:50:55.216Z,6.13
2019-01-18T13:53:25.856Z,7.57
2019-01-18T13:55:57.311Z,8.27
2019-01-18T13:58:27.059Z,8.50
2019-01-18T14:00:57.224Z,7.27
2019-01-18T14:03:27.005Z,6.67
2019-01-18T14:05:56.864Z,6.43
2019-01-18T14:08:26.800Z,4.63
2019-01-18T14:10:56.760Z,6.27
2019-01-18T14:13:26.755Z,7.13
2019-01-18T14:15:56.680Z,5.60
2019-01-18T14:18:26.990Z,5.33
2019-01-18T14:20:56.815Z,6.13
2019-01-18T14:23:29.149Z,5.33
2019-01-18T14:25:59.114Z,8.77
2019-01-18T14:28:30.322Z,5.77
2019-01-18T14:31:00.734Z,7.30
2019-01-18T14:33:33.830Z,6.27
2019-01-18T14:36:05.221Z,3.87
2019-01-18T14:38:35.047Z,5.73
2019-01-18T14:41:05.004Z,5.33
2019-01-18T14:43:36.382Z,9.33
2019-01-18T14:46:06.481Z,6.77
2019-01-18T14:48:37.274Z,6.10
2019-01-18T14:51:07.259Z,5.73
2019-01-18T14:53:37.167Z,8.13
2019-01-18T14:56:07.156Z,4.50
2019-01-18T14:58:36.918Z,6.17
2019-01-18T15:01:06.822Z,7.43
2019-01-18T15:03:36.608Z,6.13
2019-01-18T15:06:06.446Z,5.30
2019-01-18T15:08:36.360Z,4.93
2019-01-18T15:11:06.363Z,7.03
2019-01-18T15:13:36.202Z,5.70
2019-01-18T15:16:06.278Z,3.93
2019-01-18T15:18:36.259Z,5.33
2019-01-18T15:21:06.339Z,4.53
2019-01-18T15:23:36.119Z,7.03
2019-01-18T15:26:05.969Z,7.13
2019-01-18T15:28:35.859Z,4.60
2019-01-18T15:31:05.757Z,6.07
2019-01-18T15:33:35.738Z,3.63
2019-01-18T15:36:05.658Z,9.07
2019-01-18T15:38:35.527Z,4.90
2019-01-18T15:41:05.401Z,8.33
2019-01-18T15:43:35.739Z,6.93
2019-01-18T15:46:05.575Z,5.77
2019-01-18T15:48:35.402Z,6.20
2019-01-18T15:51:05.176Z,5.17
2019-01-18T15:53:35.220Z,4.47
2019-01-18T15:56:05.393Z,6.57
2019-01-18T15:58:35.287Z,8.00
2019-01-18T16:01:05.453Z,8.67
2019-01-18T16:03:35.348Z,5.60
2019-01-18T16:06:05.383Z,6.17
2019-01-18T16:08:39.365Z,5.30
2019-01-18T16:11:09.477Z,6.53
2019-01-18T16:13:39.718Z,4.43
2019-01-18T16:16:12.796Z,5.43
2019-01-18T16:18:42.806Z,9.00
2019-01-18T16:21:12.633Z,6.60
2019-01-18T16:23:43.159Z,6.07
2019-01-18T16:26:53.635Z,5.90
2019-01-18T16:29:21.586Z,6.40
2019-01-18T16:31:55.968Z,6.70
2019-01-18T16:34:25.839Z,7.20
2019-01-18T16:36:55.853Z,7.97
2019-01-18T16:39:26.247Z,5.90
2019-01-18T16:41:56.168Z,7.67
2019-01-18T16:44:26.030Z,6.97
2019-01-18T16:46:55.826Z,7.03
2019-01-18T16:49:25.647Z,8.20
2019-01-18T16:51:55.532Z,8.73
2019-01-18T16:54:25.459Z,10.77
2019-01-18T16:56:55.241Z,9.03
2019-01-18T16:59:25.007Z,7.20
2019-01-18T17:01:54.936Z,8.57
2019-01-18T17:04:24.722Z,10.93
2019-01-18T17:06:54.553Z,8.87
2019-01-18T17:09:24.399Z,9.83
2019-01-18T17:11:54.228Z,11.70
2019-01-18T17:14:24.159Z,8.47
2019-01-18T17:16:54.068Z,8.13
2019-01-18T17:19:24.081Z,8.70
2019-01-18T17:21:53.943Z,9.80
2019-01-18T17:24:24.165Z,11.43
2019-01-18T17:26:54.110Z,6.23
2019-01-18T17:29:24.098Z,8.63
2019-01-18T17:31:53.931Z,6.93
2019-01-18T17:34:23.723Z,9.03
2019-01-18T17:36:53.523Z,10.43
2019-01-18T17:39:38.225Z,7.87
2019-01-18T17:42:16.624Z,12.93
2019-01-18T17:45:11.791Z,10.03
2019-01-18T17:48:02.419Z,10.80
2019-01-18T17:50:51.272Z,9.40
2019-01-18T17:53:27.004Z,10.23
2019-01-18T17:56:20.712Z,8.47
2019-01-18T17:58:59.477Z,10.30
2019-01-18T18:01:40.846Z,8.90
2019-01-18T18:04:29.907Z,11.93
2019-01-18T18:07:32.787Z,9.43
2019-01-18T18:10:19.916Z,10.07
2019-01-18T18:13:01.786Z,10.50
2019-01-18T18:15:34.725Z,9.07
2019-01-18T18:18:28.579Z,14.43
2019-01-18T18:21:22.858Z,10.90
2019-01-18T18:23:55.684Z,11.00
2019-01-18T18:26:43.276Z,11.97
2019-01-18T18:29:24.693Z,10.03
2019-01-18T18:32:18.436Z,12.53
2019-01-18T18:35:07.853Z,12.57
2019-01-18T18:38:03.387Z,11.57
2019-01-18T18:40:39.074Z,10.83
2019-01-18T18:43:23.460Z,10.67
2019-01-18T18:46:17.055Z,11.87
2019-01-18T18:48:52.514Z,13.77
2019-01-18T18:52:08.325Z,11.43
2019-01-18T18:54:54.268Z,12.27
2019-01-18T18:57:32.713Z,14.10
2019-01-18T19:00:14.468Z,14.37
2019-01-18T19:02:59.197Z,13.80
2019-01-18T19:05:41.022Z,14.60
2019-01-18T19:08:30.095Z,13.27
2019-01-18T19:11:11.060Z,17.13
2019-01-18T19:13:52.771Z,11.30
2019-01-18T19:16:31.436Z,14.17
2019-01-18T19:19:15.343Z,11.57
2019-01-18T19:21:57.018Z,15.80
2019-01-18T19:24:29.785Z,13.73
2019-01-18T19:27:23.383Z,14.23
2019-01-18T19:30:11.160Z,12.10
2019-01-18T19:33:02.088Z,14.17
2019-01-18T19:35:37.613Z,16.87
2019-01-18T19:38:36.164Z,13.67
2019-01-18T19:41:15.022Z,19.60
2019-01-18T19:44:08.574Z,19.20
2019-01-18T19:47:02.301Z,14.23
2019-01-18T19:49:37.832Z,14.90
2019-01-18T19:52:22.719Z,13.97
2019-01-18T19:55:19.620Z,16.97
2019-01-18T19:58:12.792Z,14.07
2019-01-18T20:00:57.742Z,17.97
2019-01-18T20:03:30.578Z,16.87
2019-01-18T20:06:24.335Z,16.33
2019-01-18T20:09:00.134Z,18.67
2019-01-18T20:11:58.175Z,22.07
2019-01-18T20:14:57.662Z,26.00
2019-01-18T20:17:36.080Z,25.63
2019-01-18T20:20:20.936Z,24.80
2019-01-18T20:23:20.788Z,22.80
2019-01-18T20:25:53.659Z,26.83
2019-01-18T20:28:29.181Z,24.13
2019-01-18T20:31:04.792Z,21.27
2019-01-18T20:33:45.655Z,18.90
2019-01-18T20:36:41.670Z,21.37
2019-01-18T20:39:25.990Z,19.53
2019-01-18T20:42:10.553Z,17.93
2019-01-18T20:45:01.182Z,20.70
2019-01-18T20:47:51.599Z,14.27
2019-01-18T20:50:33.371Z,19.07
2019-01-18T20:53:29.878Z,17.13
2019-01-18T20:56:17.614Z,18.03
2019-01-18T20:58:56.189Z,18.07
2019-01-18T21:01:28.936Z,19.93
2019-01-18T21:04:16.386Z,16.23
2019-01-18T21:06:55.137Z,20.57
2019-01-18T21:09:41.181Z,19.47
2019-01-18T21:12:31.745Z,20.87
2019-01-18T21:15:04.500Z,22.50
2019-01-18T21:17:42.768Z,19.10
2019-01-18T21:20:26.797Z,23.00
2019-01-18T21:23:08.428Z,18.67
2019-01-18T21:26:01.988Z,24.73
2019-01-18T21:28:41.859Z,21.97
2019-01-18T21:31:35.663Z,21.30
2019-01-18T21:34:35.514Z,24.67
2019-01-18T21:37:27.668Z,21.00
2019-01-18T21:40:03.249Z,19.40
2019-01-18T21:42:41.729Z,19.70
2019-01-18T21:45:30.992Z,19.70
2019-01-18T21:48:15.866Z,21.97
2019-01-18T21:51:08.102Z,21.67
2019-01-18T21:53:52.925Z,22.60
2019-01-18T21:56:49.726Z,24.07
2019-01-18T21:59:47.761Z,22.60
2019-01-18T22:02:26.139Z,23.27
2019-01-18T22:05:16.868Z,27.00
2019-01-18T22:08:11.777Z,23.43
2019-01-18T22:10:56.357Z,25.43
2019-01-18T22:13:47.078Z,22.87
2019-01-18T22:16:41.255Z,31.53
2019-01-18T22:19:30.532Z,28.90
2019-01-18T22:22:21.276Z,32.43
2019-01-18T22:25:13.410Z,29.70
2019-01-18T22:28:06.915Z,33.20
2019-01-18T22:31:00.445Z,29.57
2019-01-18T22:33:41.994Z,38.03
2019-01-18T22:36:32.319Z,32.27
2019-01-18T22:39:16.733Z,35.93
2019-01-18T22:41:55.273Z,33.87
2019-01-18T22:44:36.709Z,33.70
2019-01-18T22:47:42.145Z,33.87
2019-01-18T22:50:32.678Z,30.23
2019-01-18T22:53:23.213Z,29.20
2019-01-18T22:56:01.740Z,26.57
2019-01-18T22:58:37.301Z,30.93
2019-01-18T23:01:28.673Z,30.03
2019-01-18T23:04:27.673Z,30.23
2019-01-18T23:07:05.575Z,29.33
2019-01-18T23:10:12.549Z,27.57
2019-01-18T23:12:53.959Z,29.63
2019-01-18T23:15:45.923Z,33.50
2019-01-18T23:18:24.592Z,30.07
2019-01-18T23:21:21.122Z,34.17
2019-01-18T23:23:54.439Z,29.87
2019-01-18T23:26:49.262Z,31.37
2019-01-18T23:29:21.992Z,26.13
2019-01-18T23:32:16.867Z,25.27
2019-01-18T23:35:04.183Z,23.47
2019-01-18T23:37:39.850Z,28.83
2019-01-18T23:40:24.530Z,23.50
2019-01-18T23:42:59.886Z,26.00
2019-01-18T23:45:50.588Z,28.70
2019-01-18T23:48:31.957Z,25.80
2019-01-18T23:51:13.335Z,29.17
2019-01-18T23:54:00.899Z,28.80
2019-01-18T23:56:33.621Z,23.63
2019-01-18T23:59:15.151Z,23.47
